createdAt,value
2022-12-06T00:01:06.220Z,20.95
2022-12-06T00:03:33.551Z,19.35
2022-12-06T00:06:08.300Z,18.63
2022-12-06T00:08:35.744Z,18.55
2022-12-06T00:11:17.511Z,16.33
2022-12-06T00:13:45.551Z,16.88
2022-12-06T00:16:15.427Z,17.17
2022-12-06T00:18:44.984Z,15.75
2022-12-06T00:21:15.337Z,18.58
2022-12-06T00:23:48.476Z,15.23
2022-12-06T00:26:17.954Z,16.17
2022-12-06T00:28:45.036Z,15.88
2022-12-06T00:31:17.677Z,16.00
2022-12-06T00:33:44.889Z,17.00
2022-12-06T00:36:15.599Z,16.52
2022-12-06T00:38:42.833Z,18.42
2022-12-06T00:41:18.341Z,16.05
2022-12-06T00:43:45.951Z,16.88
2022-12-06T00:46:17.398Z,16.92
2022-12-06T00:48:45.595Z,16.48
2022-12-06T00:51:14.547Z,15.80
2022-12-06T00:53:42.095Z,15.25
2022-12-06T00:56:09.272Z,15.32
2022-12-06T00:58:36.533Z,16.58
2022-12-06T01:01:33.726Z,15.77
2022-12-06T01:04:04.286Z,15.73
2022-12-06T01:06:34.011Z,14.55
2022-12-06T01:09:04.850Z,15.65
2022-12-06T01:11:32.217Z,17.90
2022-12-06T01:13:59.481Z,16.48
2022-12-06T01:16:29.120Z,14.00
2022-12-06T01:19:04.100Z,15.30
2022-12-06T01:21:31.442Z,16.55
2022-12-06T01:23:58.240Z,12.00
2022-12-06T01:26:33.279Z,14.23
2022-12-06T01:29:01.083Z,14.88
2022-12-06T01:31:35.437Z,15.05
2022-12-06T01:34:05.291Z,14.68
2022-12-06T01:36:32.469Z,16.83
2022-12-06T01:39:01.184Z,15.88
2022-12-06T01:41:28.905Z,14.65
2022-12-06T01:43:56.668Z,14.52
2022-12-06T01:46:44.515Z,15.35
2022-12-06T01:49:14.030Z,14.07
2022-12-06T01:51:51.351Z,15.60
2022-12-06T01:54:20.989Z,13.82
2022-12-06T01:56:49.081Z,13.65
2022-12-06T01:59:16.370Z,16.33
2022-12-06T02:01:44.165Z,15.75
2022-12-06T02:04:11.142Z,15.70
2022-12-06T02:06:41.078Z,14.55
2022-12-06T02:09:10.705Z,13.68
2022-12-06T02:11:38.440Z,16.05
2022-12-06T02:14:10.832Z,16.45
2022-12-06T02:16:52.379Z,16.20
2022-12-06T02:19:40.678Z,13.88
2022-12-06T02:22:16.552Z,12.88
2022-12-06T02:25:11.568Z,15.15
2022-12-06T02:28:06.326Z,13.85
2022-12-06T02:30:39.140Z,14.27
2022-12-06T02:33:15.923Z,16.70
2022-12-06T02:35:49.592Z,16.98
2022-12-06T02:38:36.928Z,15.93
2022-12-06T02:41:12.239Z,17.45
2022-12-06T02:43:47.248Z,17.13
2022-12-06T02:46:16.718Z,17.67
2022-12-06T02:48:45.935Z,16.65
2022-12-06T02:51:16.435Z,16.38
2022-12-06T02:53:47.255Z,15.68
2022-12-06T02:56:16.975Z,20.08
2022-12-06T02:58:43.797Z,19.60
2022-12-06T03:01:29.426Z,20.77
2022-12-06T03:04:32.058Z,22.52
2022-12-06T03:07:24.712Z,24.00
2022-12-06T03:10:17.179Z,23.17
2022-12-06T03:13:12.520Z,25.70
2022-12-06T03:15:57.835Z,27.15
2022-12-06T03:18:48.104Z,28.95
2022-12-06T03:21:20.267Z,30.30
2022-12-06T03:23:51.189Z,31.83
2022-12-06T03:26:23.401Z,28.65
2022-12-06T03:28:54.947Z,27.75
2022-12-06T03:31:25.113Z,26.50
2022-12-06T03:34:28.089Z,28.58
2022-12-06T03:36:56.046Z,27.98
2022-12-06T03:40:09.103Z,29.63
2022-12-06T03:42:36.840Z,30.45
2022-12-06T03:45:05.109Z,28.08
2022-12-06T03:47:37.996Z,27.85
2022-12-06T03:50:19.583Z,28.92
2022-12-06T03:52:46.570Z,30.77
2022-12-06T03:55:13.451Z,26.85
2022-12-06T03:57:40.228Z,29.48
2022-12-06T04:00:08.168Z,27.65
2022-12-06T04:02:35.007Z,28.20
2022-12-06T04:05:01.793Z,28.33
2022-12-06T04:07:28.958Z,29.60
2022-12-06T04:10:03.736Z,27.20
2022-12-06T04:12:52.395Z,27.40
2022-12-06T04:15:21.706Z,28.27
2022-12-06T04:18:08.035Z,28.35
2022-12-06T04:20:53.829Z,32.03
2022-12-06T04:23:21.636Z,29.92
2022-12-06T04:25:48.591Z,29.25
2022-12-06T04:28:34.417Z,30.67
2022-12-06T04:31:22.334Z,29.38
2022-12-06T04:34:09.466Z,30.73
2022-12-06T04:36:57.289Z,33.03
2022-12-06T04:39:24.565Z,33.45
2022-12-06T04:42:10.758Z,34.00
2022-12-06T04:44:37.643Z,34.70
2022-12-06T04:47:05.898Z,32.78
2022-12-06T04:49:33.483Z,35.88
2022-12-06T04:52:00.780Z,35.30
2022-12-06T04:54:30.499Z,43.05
2022-12-06T04:56:58.525Z,37.63
2022-12-06T04:59:26.825Z,42.88
2022-12-06T05:01:54.363Z,47.25
2022-12-06T05:04:22.242Z,47.42
2022-12-06T05:06:49.240Z,45.85
2022-12-06T05:09:16.397Z,50.28
2022-12-06T05:11:43.176Z,50.90
2022-12-06T05:14:10.656Z,47.13
2022-12-06T05:16:37.588Z,45.70
2022-12-06T05:19:04.554Z,48.58
2022-12-06T05:21:31.488Z,47.50
2022-12-06T05:23:58.589Z,47.42
2022-12-06T05:26:27.857Z,51.00
2022-12-06T05:28:55.583Z,50.28
2022-12-06T05:31:23.564Z,53.72
2022-12-06T05:33:51.739Z,53.70
2022-12-06T05:36:27.757Z,50.45
2022-12-06T05:38:54.587Z,51.55
2022-12-06T05:41:22.959Z,45.10
2022-12-06T05:43:52.458Z,46.03
2022-12-06T05:46:19.855Z,48.42
2022-12-06T05:48:46.811Z,46.55
2022-12-06T05:51:14.850Z,47.20
2022-12-06T05:53:41.691Z,47.75
2022-12-06T05:56:11.999Z,48.42
2022-12-06T05:58:39.987Z,45.78
2022-12-06T06:01:08.346Z,41.38
2022-12-06T06:03:35.656Z,44.55
2022-12-06T06:06:03.752Z,44.00
2022-12-06T06:08:31.912Z,40.75
2022-12-06T06:11:00.705Z,42.60
2022-12-06T06:13:28.084Z,38.63
2022-12-06T06:15:55.280Z,37.63
2022-12-06T06:18:22.333Z,34.88
2022-12-06T06:20:54.774Z,25.40
2022-12-06T06:23:22.335Z,26.35
2022-12-06T06:25:49.554Z,28.27
2022-12-06T06:28:17.923Z,21.00
2022-12-06T06:30:45.414Z,17.83
2022-12-06T06:33:12.304Z,18.48
2022-12-06T06:35:39.297Z,13.05
2022-12-06T06:38:06.633Z,14.00
2022-12-06T06:40:34.026Z,14.18
2022-12-06T06:43:18.488Z,14.32
2022-12-06T06:45:56.732Z,11.13
2022-12-06T06:48:24.844Z,12.70
2022-12-06T06:50:56.992Z,13.50
2022-12-06T06:53:26.086Z,12.70
2022-12-06T06:55:54.213Z,14.77
2022-12-06T06:58:21.590Z,13.88
2022-12-06T07:00:55.737Z,13.52
2022-12-06T07:03:23.703Z,13.48
2022-12-06T07:06:11.080Z,11.48
2022-12-06T07:08:40.826Z,11.13
2022-12-06T07:11:11.136Z,14.63
2022-12-06T07:13:40.310Z,12.55
2022-12-06T07:16:12.531Z,13.57
2022-12-06T07:18:40.046Z,12.50
2022-12-06T07:21:08.525Z,13.27
2022-12-06T07:23:36.495Z,14.75
2022-12-06T07:26:23.291Z,13.63
2022-12-06T07:28:51.765Z,14.80
2022-12-06T07:31:24.639Z,13.20
2022-12-06T07:33:57.762Z,14.68
2022-12-06T07:36:26.507Z,15.43
2022-12-06T07:38:56.057Z,14.70
2022-12-06T07:41:44.619Z,15.13
2022-12-06T07:44:32.109Z,15.85
2022-12-06T07:46:59.193Z,14.73
2022-12-06T07:49:28.176Z,15.93
2022-12-06T07:51:55.405Z,18.70
2022-12-06T07:54:22.767Z,17.95
2022-12-06T07:56:52.212Z,15.15
2022-12-06T07:59:19.648Z,17.48
2022-12-06T08:01:46.755Z,17.42
2022-12-06T08:04:14.445Z,14.25
2022-12-06T08:06:41.437Z,13.80
2022-12-06T08:09:08.849Z,13.45
2022-12-06T08:11:37.168Z,14.05
2022-12-06T08:14:05.412Z,15.38
2022-12-06T08:16:32.385Z,14.65
2022-12-06T08:18:59.795Z,16.00
2022-12-06T08:21:26.985Z,13.80
2022-12-06T08:23:54.924Z,16.15
2022-12-06T08:26:22.137Z,18.20
2022-12-06T08:28:48.963Z,18.00
2022-12-06T08:31:22.624Z,17.23
2022-12-06T08:33:49.716Z,20.38
2022-12-06T08:36:21.797Z,16.33
2022-12-06T08:38:50.646Z,16.55
2022-12-06T08:41:36.969Z,17.45
2022-12-06T08:44:05.153Z,19.63
2022-12-06T08:46:33.526Z,15.60
2022-12-06T08:49:00.496Z,17.50
2022-12-06T08:51:28.441Z,16.08
2022-12-06T08:54:01.778Z,14.90
2022-12-06T08:56:30.316Z,15.63
2022-12-06T08:58:58.340Z,16.52
2022-12-06T09:01:34.136Z,15.27
2022-12-06T09:04:05.595Z,14.38
2022-12-06T09:06:33.989Z,13.38
2022-12-06T09:09:00.864Z,14.02
2022-12-06T09:11:28.292Z,13.10
2022-12-06T09:13:55.469Z,11.70
2022-12-06T09:16:24.147Z,10.10
2022-12-06T09:18:52.201Z,9.77
2022-12-06T09:21:22.425Z,10.05
2022-12-06T09:23:50.223Z,10.40
2022-12-06T09:26:21.883Z,10.13
2022-12-06T09:28:52.085Z,11.48
2022-12-06T09:31:19.474Z,8.60
2022-12-06T09:33:46.915Z,8.20
2022-12-06T09:36:25.537Z,8.38
2022-12-06T09:39:11.327Z,11.10
2022-12-06T09:42:07.546Z,9.02
2022-12-06T09:44:46.197Z,10.57
2022-12-06T09:47:49.437Z,10.95
2022-12-06T09:50:22.228Z,14.48
2022-12-06T09:53:18.984Z,10.32
2022-12-06T09:56:01.152Z,10.75
2022-12-06T09:58:51.497Z,11.50
2022-12-06T10:02:01.281Z,9.95
2022-12-06T10:04:54.748Z,10.88
2022-12-06T10:07:43.144Z,9.85
2022-12-06T10:10:32.084Z,9.50
2022-12-06T10:13:22.378Z,12.60
2022-12-06T10:16:16.957Z,12.55
2022-12-06T10:19:08.519Z,11.18
2022-12-06T10:21:58.525Z,12.52
2022-12-06T10:24:46.053Z,10.57
2022-12-06T10:27:22.710Z,10.40
2022-12-06T10:29:59.109Z,9.82
2022-12-06T10:32:48.354Z,9.40
2022-12-06T10:35:41.794Z,10.40
2022-12-06T10:38:24.419Z,9.88
2022-12-06T10:40:51.176Z,10.63
2022-12-06T10:43:25.493Z,12.20
2022-12-06T10:46:30.925Z,10.20
2022-12-06T10:49:12.776Z,10.23
2022-12-06T10:52:06.197Z,10.05
2022-12-06T10:54:50.295Z,13.05
2022-12-06T10:57:28.476Z,11.32
2022-12-06T11:00:14.769Z,10.35
2022-12-06T11:03:20.475Z,9.65
2022-12-06T11:05:50.019Z,11.35
2022-12-06T11:08:26.759Z,9.10
2022-12-06T11:10:57.006Z,10.98
2022-12-06T11:13:56.688Z,10.40
2022-12-06T11:16:58.818Z,11.65
2022-12-06T11:19:57.761Z,11.27
2022-12-06T11:22:40.254Z,11.75
2022-12-06T11:25:26.450Z,12.20
2022-12-06T11:28:00.958Z,9.38
2022-12-06T11:30:31.863Z,9.15
2022-12-06T11:33:01.378Z,8.95
2022-12-06T11:35:30.344Z,9.70
2022-12-06T11:38:03.054Z,8.23
2022-12-06T11:40:39.380Z,8.30
2022-12-06T11:43:09.808Z,8.98
2022-12-06T11:45:41.948Z,9.80
2022-12-06T11:48:23.100Z,9.02
2022-12-06T11:50:53.557Z,7.35
2022-12-06T11:53:28.710Z,8.13
2022-12-06T11:56:00.830Z,7.90
2022-12-06T11:58:40.724Z,7.50
2022-12-06T12:01:11.018Z,10.13
2022-12-06T12:03:41.645Z,8.48
2022-12-06T12:06:27.855Z,7.68
2022-12-06T12:09:01.146Z,7.15
2022-12-06T12:11:33.187Z,7.07
2022-12-06T12:14:03.449Z,7.53
2022-12-06T12:16:37.006Z,6.57
2022-12-06T12:19:24.509Z,7.35
2022-12-06T12:21:54.430Z,7.38
2022-12-06T12:27:40.427Z,7.45
2022-12-06T12:30:22.091Z,8.52
2022-12-06T12:32:51.722Z,7.90
2022-12-06T12:35:21.600Z,7.78
2022-12-06T12:37:57.744Z,7.15
2022-12-06T12:40:33.910Z,6.55
2022-12-06T12:43:07.357Z,7.68
2022-12-06T12:45:34.964Z,7.15
2022-12-06T12:48:21.573Z,8.88
2022-12-06T12:50:58.858Z,7.32
2022-12-06T12:53:37.333Z,7.95
2022-12-06T12:56:15.457Z,8.20
2022-12-06T12:58:43.995Z,8.75
2022-12-06T13:01:37.729Z,8.30
2022-12-06T13:04:17.898Z,8.50
2022-12-06T13:06:55.040Z,9.82
2022-12-06T13:09:33.693Z,8.60
2022-12-06T13:12:07.745Z,8.30
2022-12-06T13:14:37.759Z,7.88
2022-12-06T13:17:08.975Z,9.85
2022-12-06T13:19:40.717Z,8.50
2022-12-06T13:22:15.163Z,8.90
2022-12-06T13:24:44.903Z,8.85
2022-12-06T13:27:17.649Z,8.60
2022-12-06T13:29:59.286Z,10.95
2022-12-06T13:32:41.375Z,11.40
2022-12-06T13:35:34.544Z,10.32
2022-12-06T13:38:22.875Z,11.15
2022-12-06T13:40:53.913Z,10.43
2022-12-06T13:43:27.282Z,9.18
2022-12-06T13:46:15.325Z,12.15
2022-12-06T13:48:56.356Z,11.13
2022-12-06T13:51:35.324Z,11.13
2022-12-06T13:54:05.410Z,10.18
2022-12-06T13:56:35.237Z,10.93
2022-12-06T13:59:12.093Z,12.00
2022-12-06T14:01:44.786Z,11.10
2022-12-06T14:07:02.843Z,10.45
2022-12-06T14:09:37.911Z,11.98
2022-12-06T14:12:19.856Z,12.23
2022-12-06T14:15:05.197Z,10.55
2022-12-06T14:18:01.661Z,10.15
2022-12-06T14:20:30.898Z,11.02
2022-12-06T14:22:58.234Z,10.55
2022-12-06T14:25:29.013Z,10.23
2022-12-06T14:28:12.318Z,11.95
2022-12-06T14:30:39.932Z,10.50
2022-12-06T14:33:22.716Z,10.18
2022-12-06T14:35:54.505Z,11.75
2022-12-06T14:38:29.819Z,9.43
2022-12-06T14:41:16.661Z,10.25
2022-12-06T14:43:47.963Z,9.20
2022-12-06T14:46:17.665Z,10.98
2022-12-06T14:49:04.160Z,9.90
2022-12-06T14:51:37.307Z,9.35
2022-12-06T14:54:19.029Z,10.90
2022-12-06T14:56:45.926Z,9.88
2022-12-06T14:59:13.163Z,10.27
2022-12-06T15:01:54.228Z,9.32
2022-12-06T15:04:36.703Z,10.02
2022-12-06T15:07:04.200Z,9.90
2022-12-06T15:09:43.313Z,10.20
2022-12-06T15:12:40.009Z,10.60
2022-12-06T15:15:40.140Z,10.80
2022-12-06T15:18:21.985Z,11.60
2022-12-06T15:20:54.115Z,9.77
2022-12-06T15:23:31.191Z,10.35
2022-12-06T15:26:00.649Z,11.38
2022-12-06T15:28:29.225Z,9.90
2022-12-06T15:30:58.946Z,10.73
2022-12-06T15:33:28.112Z,10.57
2022-12-06T15:35:54.973Z,10.93
2022-12-06T15:38:22.374Z,10.80
2022-12-06T15:40:54.052Z,12.88
2022-12-06T15:43:32.169Z,12.00
2022-12-06T15:46:01.522Z,12.43
2022-12-06T15:48:35.115Z,11.15
2022-12-06T15:51:04.190Z,12.95
2022-12-06T15:53:36.926Z,14.35
2022-12-06T15:56:05.427Z,13.90
2022-12-06T15:58:32.705Z,12.98
2022-12-06T16:01:03.296Z,13.43
2022-12-06T16:03:30.320Z,12.00
2022-12-06T16:05:58.700Z,12.70
2022-12-06T16:08:30.401Z,13.93
2022-12-06T16:11:15.609Z,15.32
2022-12-06T16:13:59.325Z,14.77
2022-12-06T16:16:38.508Z,14.73
2022-12-06T16:19:09.835Z,15.93
2022-12-06T16:21:50.761Z,15.63
2022-12-06T16:24:18.755Z,16.73
2022-12-06T16:26:46.134Z,15.90
2022-12-06T16:29:31.832Z,15.30
2022-12-06T16:32:24.791Z,16.55
2022-12-06T16:34:59.992Z,15.52
2022-12-06T16:37:30.927Z,16.95
2022-12-06T16:39:57.764Z,14.57
2022-12-06T16:42:24.576Z,15.95
2022-12-06T16:44:51.677Z,16.17
2022-12-06T16:47:18.568Z,17.55
2022-12-06T16:49:47.335Z,16.10
2022-12-06T16:52:15.266Z,15.82
2022-12-06T16:54:42.859Z,17.13
2022-12-06T16:57:13.825Z,15.82
2022-12-06T16:59:43.483Z,15.55
2022-12-06T17:02:26.615Z,14.77
2022-12-06T17:04:53.918Z,14.73
2022-12-06T17:07:20.885Z,14.73
2022-12-06T17:09:47.731Z,16.75
2022-12-06T17:12:19.758Z,15.90
2022-12-06T17:14:46.813Z,16.15
2022-12-06T17:17:15.233Z,16.08
2022-12-06T17:19:45.297Z,15.00
2022-12-06T17:22:15.638Z,16.38
2022-12-06T17:24:42.788Z,14.43
2022-12-06T17:27:09.730Z,14.50
2022-12-06T17:29:37.346Z,14.50
2022-12-06T17:32:04.457Z,14.82
2022-12-06T17:34:32.156Z,14.57
2022-12-06T17:36:59.345Z,16.23
2022-12-06T17:39:26.305Z,16.13
2022-12-06T17:42:23.548Z,16.08
2022-12-06T17:44:57.127Z,16.90
2022-12-06T17:47:24.586Z,17.27
2022-12-06T17:49:52.708Z,17.13
2022-12-06T17:52:19.623Z,16.95
2022-12-06T17:54:46.470Z,15.40
2022-12-06T17:57:18.049Z,17.08
2022-12-06T17:59:47.445Z,16.67
2022-12-06T18:02:18.752Z,17.38
2022-12-06T18:04:47.421Z,16.95
2022-12-06T18:07:14.987Z,16.73
2022-12-06T18:09:41.942Z,17.50
2022-12-06T18:12:10.475Z,14.20
2022-12-06T18:14:40.280Z,16.65
2022-12-06T18:17:07.305Z,14.23
2022-12-06T18:19:34.798Z,15.35
2022-12-06T18:22:01.690Z,17.10
2022-12-06T18:24:33.505Z,14.82
2022-12-06T18:27:01.300Z,17.10
2022-12-06T18:29:28.614Z,16.42
2022-12-06T18:31:55.428Z,14.10
2022-12-06T18:34:22.906Z,13.60
2022-12-06T18:36:49.836Z,14.10
2022-12-06T18:39:27.323Z,15.13
2022-12-06T18:41:55.255Z,14.55
2022-12-06T18:44:23.177Z,13.48
2022-12-06T18:46:50.008Z,14.48
2022-12-06T18:49:17.258Z,14.77
2022-12-06T18:51:44.260Z,17.23
2022-12-06T18:54:13.721Z,17.35
2022-12-06T18:56:42.425Z,17.15
2022-12-06T18:59:11.000Z,13.45
2022-12-06T19:01:39.094Z,15.27
2022-12-06T19:04:08.340Z,16.63
2022-12-06T19:06:37.203Z,16.80
2022-12-06T19:09:08.832Z,17.60
2022-12-06T19:11:38.447Z,13.00
2022-12-06T19:14:10.107Z,14.93
2022-12-06T19:16:51.870Z,12.80
2022-12-06T19:19:26.858Z,13.43
2022-12-06T19:21:55.143Z,13.63
2022-12-06T19:24:25.982Z,14.30
2022-12-06T19:26:54.736Z,13.38
2022-12-06T19:29:22.105Z,12.85
2022-12-06T19:31:49.144Z,14.30
2022-12-06T19:34:17.109Z,16.05
2022-12-06T19:36:44.714Z,15.82
2022-12-06T19:39:14.032Z,17.55
2022-12-06T19:42:03.776Z,20.30
2022-12-06T19:44:30.894Z,19.42
2022-12-06T19:46:58.546Z,18.67
2022-12-06T19:49:27.346Z,17.13
2022-12-06T19:51:54.394Z,17.30
2022-12-06T19:54:29.686Z,19.27
2022-12-06T19:56:58.968Z,18.25
2022-12-06T19:59:28.740Z,20.90
2022-12-06T20:01:58.587Z,19.23
2022-12-06T20:04:29.317Z,19.67
2022-12-06T20:06:57.246Z,20.63
2022-12-06T20:09:27.104Z,20.45
2022-12-06T20:12:04.014Z,18.05
2022-12-06T20:14:48.272Z,18.50
2022-12-06T20:17:21.386Z,17.58
2022-12-06T20:19:49.345Z,18.08
2022-12-06T20:22:17.659Z,18.23
2022-12-06T20:24:44.990Z,19.02
2022-12-06T20:27:12.349Z,17.63
2022-12-06T20:29:40.364Z,18.35
2022-12-06T20:32:07.663Z,17.65
2022-12-06T20:34:35.233Z,17.65
2022-12-06T20:37:04.922Z,18.30
2022-12-06T20:39:35.965Z,18.88
2022-12-06T20:42:06.329Z,20.60
2022-12-06T20:44:34.171Z,21.00
2022-12-06T20:47:06.948Z,17.30
2022-12-06T20:49:36.377Z,19.17
2022-12-06T20:52:05.739Z,20.77
2022-12-06T20:54:32.841Z,19.05
2022-12-06T20:57:07.845Z,20.67
2022-12-06T20:59:36.499Z,18.58
2022-12-06T21:02:04.528Z,19.02
2022-12-06T21:04:32.036Z,16.42
2022-12-06T21:07:00.661Z,17.77
2022-12-06T21:09:28.615Z,18.95
2022-12-06T21:11:56.992Z,16.02
2022-12-06T21:14:29.142Z,17.42
2022-12-06T21:16:57.987Z,17.73
2022-12-06T21:19:25.641Z,15.93
2022-12-06T21:21:56.504Z,18.50
2022-12-06T21:24:24.411Z,16.92
2022-12-06T21:26:52.264Z,16.67
2022-12-06T21:29:29.775Z,18.05
2022-12-06T21:32:01.749Z,15.93
2022-12-06T21:34:30.954Z,17.00
2022-12-06T21:36:59.284Z,17.05
2022-12-06T21:39:27.925Z,16.35
2022-12-06T21:41:57.643Z,16.05
2022-12-06T21:44:25.306Z,15.43
2022-12-06T21:46:57.121Z,14.48
2022-12-06T21:49:33.985Z,13.60
2022-12-06T21:52:09.046Z,14.32
2022-12-06T21:54:36.557Z,14.30
2022-12-06T21:57:05.709Z,15.18
2022-12-06T21:59:36.326Z,15.32
2022-12-06T22:02:04.593Z,14.98
2022-12-06T22:04:36.008Z,16.15
2022-12-06T22:07:07.998Z,20.27
2022-12-06T22:09:37.295Z,16.88
2022-12-06T22:12:16.545Z,17.17
2022-12-06T22:14:58.544Z,17.75
2022-12-06T22:17:37.479Z,16.60
2022-12-06T22:20:13.999Z,14.90
2022-12-06T22:22:52.494Z,15.20
2022-12-06T22:25:38.140Z,17.02
2022-12-06T22:31:18.478Z,15.27
2022-12-06T22:33:47.123Z,15.50
2022-12-06T22:36:15.573Z,15.07
2022-12-06T22:38:42.864Z,14.30
2022-12-06T22:41:10.274Z,14.82
2022-12-06T22:43:37.973Z,15.23
2022-12-06T22:46:12.461Z,16.23
2022-12-06T22:48:46.185Z,17.25
2022-12-06T22:51:21.038Z,15.00
2022-12-06T22:53:53.716Z,13.68
2022-12-06T22:56:21.738Z,14.45
2022-12-06T22:58:53.613Z,16.00
2022-12-06T23:01:26.661Z,17.67
2022-12-06T23:03:55.620Z,12.98
2022-12-06T23:06:24.960Z,13.90
2022-12-06T23:08:53.328Z,12.73
2022-12-06T23:11:28.248Z,13.40
2022-12-06T23:13:57.718Z,13.40
2022-12-06T23:16:32.780Z,12.15
2022-12-06T23:19:01.750Z,12.98
2022-12-06T23:21:32.355Z,12.20
2022-12-06T23:24:05.686Z,11.27
2022-12-06T23:26:36.586Z,12.80
2022-12-06T23:29:06.750Z,12.13
2022-12-06T23:31:42.274Z,11.82
2022-12-06T23:34:21.701Z,9.98
2022-12-06T23:36:49.560Z,10.15
2022-12-06T23:39:19.110Z,12.32
2022-12-06T23:41:46.861Z,10.60
2022-12-06T23:44:14.838Z,8.80
2022-12-06T23:46:43.490Z,9.45
2022-12-06T23:49:18.915Z,9.07
2022-12-06T23:51:54.023Z,11.45
2022-12-06T23:54:22.687Z,8.90
2022-12-06T23:56:49.484Z,9.55
2022-12-06T23:59:18.026Z,8.70
